Terminal Aerodrome Forecast
Issued by NWS

Home | Current Version | Previous Version | Text Only | Print | Product List | Glossary On
Versions: 1 2 3 4 5 6 7 8 9 10 11 12 13 14 15 16 17 18 19 20 21 22 23 24 25
000
FTAK31 PAFA 271735
TAFAOM
TAF
PAOM 271735Z 2718/2818 09007KT P6SM -SHRA FEW015 BKN040 OVC080
     FM280300 12008KT 3SM -SHRA BR BKN007 OVC015
     FM281500 20008KT P6SM -SHRA SCT007 OVC015=

USA.gov is the U.S. government's official web portal to all federal, state and local government web resources and services.